Time;durP1;ratioP1;P1;durP2;ratioP2;P2;SDS_P1;SDS_P2;PMS_P1;PMS_P2;Temp;Humidity;BMP_temperature;BMP_pressure;BME280_temperature;BME280_humidity;BME280_pressure;Samples;Min_cycle;Max_cycle;Signal;HPM_P1;HPM_P2
2022/05/23 00:00:28;;;;;;;;;5.00;5.00;;;;;20.48;60.87;99958.53;5115078;27;45680;-79
2022/05/23 00:02:54;;;;;;;;;6.00;6.00;;;;;20.21;60.53;99916.31;5130224;27;45218;-80
2022/05/23 00:05:19;;;;;;;;;5.25;4.75;;;;;20.48;60.68;99945.19;5111193;27;45675;-80
2022/05/23 00:07:47;;;;;;;;;7.00;7.00;;;;;20.19;60.37;99894.97;5109907;27;45849;-80
2022/05/23 00:10:15;;;;;;;;;5.50;5.50;;;;;20.47;60.37;99938.09;5118260;27;45674;-80
2022/05/23 00:12:41;;;;;;;;;5.50;5.00;;;;;20.39;60.33;99925.75;5112272;27;45143;-80
2022/05/23 00:15:10;;;;;;;;;6.00;5.25;;;;;20.24;60.64;99900.22;5111435;27;44886;-80
2022/05/23 00:17:36;;;;;;;;;5.00;4.75;;;;;20.09;60.88;99880.91;5123530;27;46401;-80
2022/05/23 00:20:07;;;;;;;;;5.50;5.50;;;;;20.41;60.64;99947.97;5114122;27;45218;-80
2022/05/23 00:22:33;;;;;;;;;5.00;5.00;;;;;20.36;60.61;99922.25;5126014;27;45013;-80
2022/05/23 00:24:59;;;;;;;;;6.25;5.75;;;;;20.21;60.35;99901.19;5110786;27;45215;-80
2022/05/23 00:27:24;;;;;;;;;4.25;4.25;;;;;20.04;60.17;99861.44;5121327;27;45092;-80
2022/05/23 00:29:51;;;;;;;;;6.00;5.25;;;;;20.24;60.10;99898.44;5125100;27;46416;-80
2022/05/23 00:35:19;;;;;;;;;4.50;4.50;;;;;20.17;60.08;99854.09;5128439;27;45137;-80
2022/05/23 00:37:45;;;;;;;;;6.25;6.25;;;;;20.08;59.82;99833.81;5113653;27;45428;-80
2022/05/23 00:40:42;;;;;;;;;6.00;5.00;;;;;20.27;60.14;99863.69;5127193;27;45500;-80
2022/05/23 00:43:15;;;;;;;;;7.50;6.00;;;;;20.44;59.82;99894.50;5112336;27;45177;-80
2022/05/23 00:45:44;;;;;;;;;6.00;5.25;;;;;20.38;60.41;99882.16;5112242;27;45118;-79
2022/05/23 00:48:10;;;;;;;;;4.50;4.50;;;;;20.16;60.63;99855.03;5128781;27;45965;-80
2022/05/23 00:50:40;;;;;;;;;6.25;6.00;;;;;20.36;61.31;99892.88;5114040;27;45629;-80
2022/05/23 00:53:07;;;;;;;;;6.00;6.00;;;;;20.13;61.25;99868.41;5127333;27;45209;-80
2022/05/23 00:55:41;;;;;;;;;5.50;4.25;;;;;20.27;61.56;99894.84;5129240;27;45064;-80
2022/05/23 00:58:20;;;;;;;;;6.00;6.00;;;;;19.96;61.62;99847.38;5115145;27;45485;-80
2022/05/23 01:00:46;;;;;;;;;6.00;5.00;;;;;20.07;61.25;99864.06;5128530;27;45620;-79
2022/05/23 01:03:15;;;;;;;;;7.00;6.00;;;;;19.91;60.83;99833.25;5112875;27;44981;-79
2022/05/23 01:05:41;;;;;;;;;3.50;3.50;;;;;19.93;61.04;99835.88;5130941;27;45258;-80
2022/05/23 01:08:07;;;;;;;;;4.00;3.75;;;;;19.92;60.50;99824.34;5113495;27;45412;-80
2022/05/23 01:10:35;;;;;;;;;6.50;6.25;;;;;19.89;60.88;99821.72;5124203;27;45185;-80
2022/05/23 01:13:00;;;;;;;;;3.75;3.50;;;;;19.97;60.26;99822.47;5126685;27;45031;-79
2022/05/23 01:15:29;;;;;;;;;5.25;5.25;;;;;20.03;60.53;99809.00;5111976;27;45380;-80
2022/05/23 01:17:54;;;;;;;;;3.25;3.25;;;;;19.87;60.46;99775.53;5128931;27;46337;-80
2022/05/23 01:20:22;;;;;;;;;4.50;4.50;;;;;19.82;60.48;99764.09;5112620;27;45368;-80
2022/05/23 01:23:18;;;;;;;;;5.75;4.75;;;;;20.03;60.21;99797.47;5126101;27;45337;-80
2022/05/23 01:25:46;;;;;;;;;7.50;7.00;;;;;20.03;60.16;99792.13;5128236;27;45142;-80
2022/05/23 01:28:12;;;;;;;;;5.25;4.50;;;;;20.02;60.56;99791.25;5115402;27;46187;-80
2022/05/23 01:30:40;;;;;;;;;4.75;4.00;;;;;19.85;60.65;99774.69;5121876;27;45648;-79
2022/05/23 01:33:05;;;;;;;;;5.25;5.00;;;;;19.91;60.89;99790.59;5092178;27;45565;-80
2022/05/23 01:35:31;;;;;;;;;5.50;5.50;;;;;19.88;60.98;99773.75;5115232;27;45114;-80
2022/05/23 01:37:57;;;;;;;;;4.50;4.00;;;;;19.65;60.93;99744.84;5123094;27;46108;-80
2022/05/23 01:40:23;;;;;;;;;5.00;5.00;;;;;19.75;60.75;99757.09;5118097;27;45067;-80
2022/05/23 01:42:49;;;;;;;;;5.00;5.00;;;;;19.88;60.78;99763.09;5111914;27;45549;-80
2022/05/23 01:45:18;;;;;;;;;5.00;5.00;;;;;19.77;61.27;99739.28;5110236;27;45148;-79
2022/05/23 01:47:43;;;;;;;;;4.00;4.00;;;;;19.61;61.00;99719.19;5119671;27;47350;-80
2022/05/23 01:50:09;;;;;;;;;6.75;4.75;;;;;19.55;60.99;99706.78;5131066;27;45074;-80
2022/05/23 01:52:36;;;;;;;;;4.00;4.00;;;;;19.53;61.39;99708.59;5126056;27;45188;-80
2022/05/23 01:55:01;;;;;;;;;5.00;5.00;;;;;19.45;61.14;99700.75;5124282;27;45072;-79
2022/05/23 01:57:27;;;;;;;;;5.25;5.00;;;;;19.63;61.60;99731.56;5116440;27;45710;-80
2022/05/23 02:02:36;;;;;;;;;4.50;4.25;;;;;19.31;61.87;99689.47;5118535;27;44993;-80
2022/05/23 02:05:03;;;;;;;;;3.00;3.00;;;;;19.29;62.20;99689.50;5131025;27;45300;-80
2022/05/23 02:07:29;;;;;;;;;4.75;4.75;;;;;19.33;61.99;99704.53;5125704;27;45258;-80
2022/05/23 02:09:54;;;;;;;;;5.50;5.25;;;;;19.17;62.52;99679.06;5119160;27;45036;-80
2022/05/23 02:12:20;;;;;;;;;5.00;4.00;;;;;19.38;62.48;99724.88;5110250;27;45100;-80
2022/05/23 02:14:47;;;;;;;;;6.75;5.25;;;;;19.20;62.91;99708.28;5127428;27;45269;-80
2022/05/23 02:17:13;;;;;;;;;4.25;4.25;;;;;19.24;62.94;99731.31;5114651;27;45256;-79
2022/05/23 02:19:39;;;;;;;;;4.75;4.75;;;;;19.28;63.24;99745.47;5108662;27;45553;-81
2022/05/23 02:22:05;;;;;;;;;5.25;4.25;;;;;19.18;63.35;99730.56;5112619;27;45100;-79
2022/05/23 02:24:30;;;;;;;;;3.00;3.00;;;;;18.80;63.59;99686.78;5119212;27;45274;-80
2022/05/23 02:26:56;;;;;;;;;6.25;6.25;;;;;19.02;63.56;99740.59;5094295;27;46196;-80
2022/05/23 02:29:21;;;;;;;;;5.00;5.00;;;;;18.91;63.91;99714.09;5122668;27;45178;-80
2022/05/23 02:31:49;;;;;;;;;5.25;4.50;;;;;18.97;63.73;99740.66;5120413;27;45063;-79
2022/05/23 02:34:16;;;;;;;;;5.00;5.00;;;;;19.10;64.01;99775.06;5124376;27;45166;-79
2022/05/23 02:36:43;;;;;;;;;5.75;5.25;;;;;18.95;63.93;99758.41;5128262;27;45318;-80
2022/05/23 02:39:08;;;;;;;;;5.50;5.00;;;;;18.96;64.10;99756.63;5115106;27;45643;-80
2022/05/23 02:41:34;;;;;;;;;5.00;5.00;;;;;18.83;64.32;99736.44;5125316;27;45273;-80
2022/05/23 02:44:00;;;;;;;;;4.75;4.00;;;;;18.84;64.44;99724.88;5115144;27;45972;-79
2022/05/23 02:46:25;;;;;;;;;4.50;4.50;;;;;18.77;64.09;99714.34;5119455;27;45088;-80
2022/05/23 02:48:51;;;;;;;;;5.25;5.25;;;;;18.88;64.79;99729.25;5119378;27;45065;-80
2022/05/23 02:51:16;;;;;;;;;5.00;4.75;;;;;18.77;64.45;99716.13;5114896;27;45580;-80
2022/05/23 02:53:42;;;;;;;;;6.75;5.00;;;;;18.66;64.42;99694.94;5120671;27;45294;-80
2022/05/23 02:56:07;;;;;;;;;6.00;5.75;;;;;18.82;64.39;99716.94;5126938;27;46485;-80
2022/05/23 02:58:32;;;;;;;;;6.75;6.75;;;;;18.91;64.71;99743.38;5115013;27;45219;-80
2022/05/23 03:00:58;;;;;;;;;6.75;6.75;;;;;18.92;64.54;99753.16;5124693;27;45270;-79
2022/05/23 03:03:23;;;;;;;;;6.25;5.25;;;;;18.89;64.56;99758.53;5117186;27;45296;-80
2022/05/23 03:05:51;;;;;;;;;5.50;5.50;;;;;19.00;64.71;99779.66;5114518;27;45881;-80
2022/05/23 03:08:22;;;;;;;;;5.25;5.25;;;;;18.76;64.98;99749.81;5125825;27;45902;-79
2022/05/23 03:10:50;;;;;;;;;6.75;5.75;;;;;18.94;65.20;99801.06;5117804;27;45411;-80
2022/05/23 03:13:16;;;;;;;;;3.75;3.75;;;;;18.61;65.22;99728.72;5121740;27;45071;-80
2022/05/23 03:15:42;;;;;;;;;6.00;6.00;;;;;18.90;65.44;99778.03;5108672;27;45598;-79
2022/05/23 03:18:08;;;;;;;;;6.00;5.00;;;;;18.81;65.50;99755.97;5111437;27;46076;-80
2022/05/23 03:20:34;;;;;;;;;5.25;5.00;;;;;18.83;64.94;99755.97;5125356;27;45060;-80
2022/05/23 03:28:31;;;;;;;;;6.00;6.00;;;;;19.07;65.24;99736.94;5113019;27;45339;-79
2022/05/23 03:30:56;;;;;;;;;8.00;7.00;;;;;19.03;65.08;99727.22;5123892;27;45146;-80
2022/05/23 03:33:22;;;;;;;;;5.75;4.75;;;;;18.97;64.56;99707.81;5124945;27;45416;-80
2022/05/23 03:35:48;;;;;;;;;9.25;7.00;;;;;19.05;65.32;99725.41;5128281;27;45257;-80
2022/05/23 03:38:14;;;;;;;;;5.50;5.50;;;;;19.04;65.54;99701.47;5129740;27;45724;-80
2022/05/23 03:40:41;;;;;;;;;6.25;5.25;;;;;18.81;65.89;99669.88;5117590;27;45205;-79
2022/05/23 03:43:07;;;;;;;;;8.75;7.00;;;;;19.11;66.25;99715.56;5115680;27;45147;-80
2022/05/23 03:45:33;;;;;;;;;9.00;8.00;;;;;19.04;66.20;99726.31;5118581;27;45320;-80
2022/05/23 03:48:00;;;;;;;;;8.00;7.75;;;;;18.89;66.22;99688.41;5109334;27;45315;-79
2022/05/23 03:50:28;;;;;;;;;7.00;7.00;;;;;18.92;66.43;99704.34;5128244;27;45084;-80
2022/05/23 03:52:53;;;;;;;;;7.00;7.00;;;;;18.70;67.05;99680.72;5118111;27;45350;-79
2022/05/23 03:55:20;;;;;;;;;7.25;6.75;;;;;18.84;66.92;99719.56;5115046;27;45289;-79
2022/05/23 03:57:45;;;;;;;;;11.00;8.75;;;;;18.78;67.49;99692.13;5117622;27;45118;-80
2022/05/23 04:00:12;;;;;;;;;6.50;6.50;;;;;18.79;67.63;99696.53;5116267;27;45150;-80
2022/05/23 04:02:38;;;;;;;;;8.00;8.00;;;;;18.66;67.75;99659.47;5113572;27;45313;-79
2022/05/23 04:05:04;;;;;;;;;6.25;6.25;;;;;18.69;67.80;99664.78;5113048;27;45368;-80
2022/05/23 04:07:30;;;;;;;;;8.75;8.25;;;;;18.83;67.64;99661.91;5113433;27;45663;-79
2022/05/23 04:09:56;;;;;;;;;7.00;7.00;;;;;18.77;67.99;99646.91;5129078;27;45338;-79
2022/05/23 04:12:21;;;;;;;;;5.50;5.50;;;;;18.85;67.46;99650.31;5112411;27;45389;-79
2022/05/23 04:14:47;;;;;;;;;6.75;6.50;;;;;18.77;67.62;99625.63;5096512;27;45905;-80
2022/05/23 04:17:12;;;;;;;;;7.00;6.75;;;;;18.71;67.18;99604.41;5130863;27;44955;-79
2022/05/23 04:19:37;;;;;;;;;7.00;7.00;;;;;18.89;67.47;99632.50;5116310;27;45222;-80
2022/05/23 04:22:03;;;;;;;;;8.00;7.50;;;;;18.81;67.54;99617.53;5125092;27;45364;-80
2022/05/23 04:24:28;;;;;;;;;5.25;4.50;;;;;18.74;67.95;99596.38;5108039;27;47437;-80
2022/05/23 04:26:55;;;;;;;;;8.25;7.75;;;;;18.99;67.81;99636.75;5111723;27;45474;-80
2022/05/23 04:29:22;;;;;;;;;7.50;7.00;;;;;19.01;67.62;99632.28;5112770;27;45483;-80
2022/05/23 04:31:47;;;;;;;;;7.75;7.00;;;;;18.66;68.18;99561.84;5113052;27;45245;-80
2022/05/23 04:36:57;;;;;;;;;9.00;8.25;;;;;18.86;68.15;99550.00;5113978;27;45650;-79
2022/05/23 04:39:22;;;;;;;;;9.00;9.00;;;;;18.97;68.06;99575.56;5121072;27;45118;-79
2022/05/23 04:41:47;;;;;;;;;10.25;7.50;;;;;18.76;67.80;99555.50;5098115;27;46018;-80
2022/05/23 04:44:13;;;;;;;;;11.00;9.25;;;;;19.10;67.57;99605.47;5119691;27;45342;-80
2022/05/23 04:49:41;;;;;;;;;8.25;8.25;;;;;19.04;67.73;99587.84;5103276;27;45595;-79
2022/05/23 04:52:12;;;;;;;;;9.50;9.25;;;;;19.11;67.47;99591.25;5108131;27;45442;-79
2022/05/23 04:54:38;;;;;;;;;10.75;8.75;;;;;19.18;67.06;99589.38;5101814;27;47013;-79
2022/05/23 04:57:11;;;;;;;;;7.50;7.50;;;;;19.17;67.06;99584.97;5091729;27;46025;-81
2022/05/23 04:59:36;;;;;;;;;9.25;8.00;;;;;18.87;67.39;99515.41;5125720;27;45189;-80
2022/05/23 05:02:03;;;;;;;;;7.75;7.75;;;;;19.10;67.17;99560.19;5126342;27;45340;-79
2022/05/23 05:04:30;;;;;;;;;8.00;7.50;;;;;19.05;66.44;99543.44;5124875;27;45418;-80
2022/05/23 05:06:56;;;;;;;;;7.00;7.00;;;;;19.22;66.69;99575.09;5112500;27;45313;-81
2022/05/23 05:09:22;;;;;;;;;7.25;7.00;;;;;19.02;67.40;99549.72;5127225;27;45582;-80
2022/05/23 05:11:47;;;;;;;;;7.75;7.50;;;;;19.05;67.24;99554.09;5118357;27;45533;-80
2022/05/23 05:14:12;;;;;;;;;8.50;7.25;;;;;19.22;67.50;99577.75;5120945;27;45150;-80
2022/05/23 05:16:38;;;;;;;;;7.00;6.00;;;;;19.03;67.78;99545.25;5120001;27;45411;-80
2022/05/23 05:19:03;;;;;;;;;7.50;6.75;;;;;19.05;67.25;99549.63;5122601;27;45064;-80
2022/05/23 05:21:29;;;;;;;;;8.00;6.00;;;;;19.20;67.50;99572.44;5122042;27;45118;-80
2022/05/23 05:23:55;;;;;;;;;7.75;7.75;;;;;19.30;68.04;99583.78;5118402;27;45174;-79
2022/05/23 05:26:22;;;;;;;;;6.00;6.00;;;;;19.34;67.20;99580.16;5117774;27;45054;-79
2022/05/23 05:28:48;;;;;;;;;5.25;5.25;;;;;19.34;67.42;99577.50;5105759;27;45120;-80
2022/05/23 05:31:16;;;;;;;;;5.00;5.00;;;;;19.38;67.27;99591.66;5107024;27;45521;-80
2022/05/23 05:33:53;;;;;;;;;6.75;6.75;;;;;19.32;67.06;99585.53;5115320;27;45552;-83
2022/05/23 05:36:25;;;;;;;;;6.25;6.00;;;;;19.33;67.30;99581.09;5115446;27;45221;-81
2022/05/23 05:38:59;;;;;;;;;10.00;9.00;;;;;19.48;67.28;99585.22;5111207;27;45702;-82
2022/05/23 05:41:29;;;;;;;;;8.50;8.50;;;;;19.50;67.02;99581.59;5087950;27;45479;-83
2022/05/23 05:44:00;;;;;;;;;7.50;7.25;;;;;19.47;66.66;99570.16;5108506;27;46050;-83
2022/05/23 05:46:30;;;;;;;;;7.75;7.50;;;;;19.73;67.02;99590.97;5099279;27;45649;-83
2022/05/23 05:48:59;;;;;;;;;9.25;9.25;;;;;19.92;66.71;99594.97;5108157;27;45309;-83
2022/05/23 05:51:26;;;;;;;;;7.50;7.50;;;;;19.75;66.81;99544.69;5120388;27;45046;-83
2022/05/23 05:53:52;;;;;;;;;7.50;7.00;;;;;20.10;66.63;99586.56;5127205;27;45170;-84
2022/05/23 05:56:19;;;;;;;;;7.25;6.50;;;;;20.18;66.20;99580.19;5106080;27;45756;-83
2022/05/23 05:58:44;;;;;;;;;7.50;7.50;;;;;19.95;66.54;99549.59;5096290;27;45122;-83
2022/05/23 06:01:10;;;;;;;;;7.00;7.00;;;;;19.90;66.20;99543.47;5127260;27;45093;-84
2022/05/23 06:03:36;;;;;;;;;8.75;8.50;;;;;20.18;65.99;99596.19;5110421;27;47553;-83
2022/05/23 06:11:32;;;;;;;;;9.00;8.00;;;;;20.09;65.85;99614.16;5113741;27;45331;-83
2022/05/23 06:14:00;;;;;;;;;6.25;6.25;;;;;19.67;65.49;99557.31;5117770;27;45419;-84
2022/05/23 06:16:27;;;;;;;;;7.25;7.00;;;;;20.01;65.86;99612.59;5117260;27;45443;-85
2022/05/23 06:18:52;;;;;;;;;8.00;8.00;;;;;19.98;65.74;99609.97;5107268;27;45127;-84
2022/05/23 06:21:18;;;;;;;;;7.25;7.25;;;;;19.51;66.10;99519.41;5111866;27;45251;-83
2022/05/23 06:23:46;;;;;;;;;8.00;8.00;;;;;19.88;66.25;99581.75;5123408;27;45970;-84
2022/05/23 06:26:13;;;;;;;;;8.00;7.50;;;;;19.88;66.64;99563.09;5123135;27;45289;-84
2022/05/23 06:28:38;;;;;;;;;11.25;11.00;;;;;19.71;66.59;99510.16;5113991;27;45220;-84
2022/05/23 06:31:04;;;;;;;;;7.75;7.75;;;;;19.99;66.22;99556.59;5095473;27;45392;-84
2022/05/23 06:33:29;;;;;;;;;12.75;10.00;;;;;19.77;66.98;99505.53;5117782;27;46752;-84
2022/05/23 06:35:55;;;;;;;;;7.00;7.00;;;;;19.90;66.60;99516.81;5093111;27;45475;-84
2022/05/23 06:38:20;;;;;;;;;7.75;7.75;;;;;19.88;66.27;99507.97;5090356;27;45556;-83
2022/05/23 06:40:51;;;;;;;;;8.00;8.00;;;;;20.10;66.63;99554.56;5093381;27;45637;-85
2022/05/23 06:43:17;;;;;;;;;7.00;6.00;;;;;20.09;66.87;99560.78;5074406;27;48434;-85
2022/05/23 06:45:42;;;;;;;;;8.00;8.00;;;;;19.94;67.05;99528.25;5090838;27;46011;-84
2022/05/23 06:48:09;;;;;;;;;8.00;8.00;;;;;19.97;66.76;99531.75;5103846;27;45549;-85
2022/05/23 06:50:37;;;;;;;;;5.25;4.75;;;;;19.95;66.75;99524.69;5087105;27;45557;-92
2022/05/23 06:53:03;;;;;;;;;8.25;7.25;;;;;19.46;66.79;99436.03;5081111;27;47104;-85
2022/05/23 06:55:29;;;;;;;;;8.75;8.75;;;;;19.29;66.96;99391.09;5113012;27;45525;-88
2022/05/23 06:58:04;;;;;;;;;6.50;6.25;;;;;19.67;66.77;99455.13;5111691;27;45453;-93
2022/05/23 07:00:29;;;;;;;;;8.75;8.00;;;;;19.89;66.86;99487.50;5111513;27;45365;-89
2022/05/23 07:02:54;;;;;;;;;6.25;6.25;;;;;20.12;66.96;99525.19;5110911;27;46404;-82
2022/05/23 07:13:33;;;;;;;;;8.75;8.00;;;;;20.32;66.33;99514.03;5111798;27;45898;-82
2022/05/23 07:15:59;;;;;;;;;8.25;8.00;;;;;20.61;66.10;99554.22;5095611;27;45464;-84
2022/05/23 07:18:26;;;;;;;;;9.00;9.00;;;;;20.54;66.23;99531.28;5091067;27;45509;-88
2022/05/23 07:20:52;;;;;;;;;9.00;9.00;;;;;20.39;66.00;99501.38;5091760;27;45496;-85
2022/05/23 07:23:17;;;;;;;;;13.00;9.50;;;;;20.45;66.04;99530.63;5090462;27;45529;-86
2022/05/23 07:25:42;;;;;;;;;10.75;9.25;;;;;20.34;66.05;99526.44;5090661;27;45425;-82
2022/05/23 07:28:08;;;;;;;;;11.67;11.67;;;;;20.43;66.68;99543.97;5093385;27;45819;-85
2022/05/23 07:30:34;;;;;;;;;10.75;10.25;;;;;20.44;66.65;99553.72;5111877;27;45670;-83
2022/05/23 07:32:59;;;;;;;;;9.00;9.00;;;;;20.27;66.97;99532.81;5113264;27;46393;-88
2022/05/23 07:35:26;;;;;;;;;13.25;11.50;;;;;20.35;67.59;99546.84;5114480;27;45547;-84
2022/05/23 07:37:52;;;;;;;;;10.00;8.50;;;;;20.20;68.22;99483.19;5095535;27;45529;-87
2022/05/23 07:40:18;;;;;;;;;10.00;10.00;;;;;20.63;68.24;99479.44;5114252;27;45560;-82
2022/05/23 07:42:44;;;;;;;;;10.25;8.50;;;;;21.07;68.39;99482.66;5087105;27;48132;-85
2022/05/23 07:45:11;;;;;;;;;9.75;9.75;;;;;20.97;67.59;99435.78;5094687;27;45455;-85
2022/05/23 07:47:40;;;;;;;;;10.75;10.75;;;;;21.05;67.11;99437.31;5101106;27;45435;-85
2022/05/23 07:50:08;;;;;;;;;11.25;10.25;;;;;21.44;67.97;99484.31;5091906;27;45513;-82
2022/05/23 07:52:33;;;;;;;;;16.00;14.00;;;;;21.18;67.13;99455.63;5084511;27;48324;-84
2022/05/23 08:02:52;;;;;;;;;15.50;13.25;;;;;21.37;67.49;99451.53;5111669;27;45415;-84
2022/05/23 08:05:18;;;;;;;;;12.00;11.00;;;;;21.63;67.36;99490.88;5114261;27;45699;-85
2022/05/23 08:07:46;;;;;;;;;12.75;12.25;;;;;21.54;66.63;99478.66;5101292;27;45487;-83
2022/05/23 08:10:12;;;;;;;;;13.50;13.50;;;;;21.56;68.24;99483.94;5093379;27;45495;-85
2022/05/23 08:12:38;;;;;;;;;11.75;11.50;;;;;21.45;67.45;99481.59;5075379;27;48050;-83
2022/05/23 08:15:04;;;;;;;;;8.00;7.25;;;;;21.29;67.13;99467.78;5093289;27;45708;-82
2022/05/23 08:17:30;;;;;;;;;9.00;8.00;;;;;21.38;67.17;99506.78;5093741;27;45890;-85
2022/05/23 08:19:56;;;;;;;;;5.75;5.75;;;;;21.00;67.38;99475.75;5082852;27;45476;-84
2022/05/23 08:22:22;;;;;;;;;5.75;5.25;;;;;21.13;67.55;99528.81;5099760;27;46190;-83
2022/05/23 08:24:48;;;;;;;;;6.75;6.75;;;;;20.83;67.82;99492.25;5093731;27;45324;-84
2022/05/23 08:27:13;;;;;;;;;4.75;4.75;;;;;21.03;67.39;99530.00;5095699;27;45925;-82
2022/05/23 08:29:39;;;;;;;;;6.50;6.50;;;;;20.86;68.40;99492.16;5083140;27;45513;-84
2022/05/23 08:32:06;;;;;;;;;6.00;5.75;;;;;21.06;68.58;99510.31;5112816;27;46322;-84
2022/05/23 08:34:31;;;;;;;;;8.00;7.00;;;;;21.08;68.08;99498.69;5074839;27;46305;-84
2022/05/23 08:36:58;;;;;;;;;7.50;6.75;;;;;21.20;68.02;99516.16;5093458;27;45543;-83
2022/05/23 08:39:24;;;;;;;;;8.75;8.00;;;;;20.89;67.61;99456.50;5079242;27;45514;-84
2022/05/23 08:41:51;;;;;;;;;7.00;7.00;;;;;21.04;67.38;99493.47;5093997;27;46964;-83
2022/05/23 08:44:44;;;;;;;;;7.25;7.25;;;;;21.03;68.29;99507.72;5075180;27;45795;-83
2022/05/23 08:47:27;;;;;;;;;9.75;7.00;;;;;20.97;68.99;99510.56;5083876;27;45446;-83
2022/05/23 08:50:15;;;;;;;;;11.00;11.00;;;;;20.64;68.42;99453.59;5110643;27;45507;-85
2022/05/23 08:53:01;;;;;;;;;12.50;11.25;;;;;20.65;68.43;99453.59;5112422;27;45215;-86
2022/05/23 08:55:39;;;;;;;;;14.00;13.25;;;;;21.05;68.74;99498.75;5100771;27;45412;-84
2022/05/23 08:58:34;;;;;;;;;14.50;13.75;;;;;21.05;68.24;99496.09;5092476;27;45210;-85
2022/05/23 09:01:07;;;;;;;;;14.00;12.50;;;;;21.03;67.89;99503.28;5124334;27;45198;-83
2022/05/23 09:03:46;;;;;;;;;14.00;12.50;;;;;20.93;68.50;99520.44;5118432;27;45291;-85
2022/05/23 09:06:27;;;;;;;;;15.75;13.75;;;;;20.85;68.11;99504.66;5086262;27;45396;-85
2022/05/23 09:08:56;;;;;;;;;12.50;11.50;;;;;20.72;68.09;99472.97;5074770;27;45467;-84
2022/05/23 09:11:28;;;;;;;;;17.00;16.50;;;;;20.74;67.51;99477.38;5088380;27;45825;-85
2022/05/23 09:13:55;;;;;;;;;13.75;13.25;;;;;21.02;67.44;99524.66;5112553;27;46161;-85
2022/05/23 09:16:22;;;;;;;;;14.50;13.00;;;;;20.95;67.48;99502.59;5093157;27;45256;-84
2022/05/23 09:19:14;;;;;;;;;12.50;12.50;;;;;21.01;67.50;99478.38;5093876;27;45378;-85
2022/05/23 09:24:24;;;;;;;;;16.00;15.50;;;;;21.29;65.92;99486.50;5112307;27;45478;-85
2022/05/23 09:26:55;;;;;;;;;19.00;18.25;;;;;21.37;65.53;99500.50;5093822;27;45476;-85
2022/05/23 09:29:20;;;;;;;;;15.75;14.50;;;;;21.38;65.92;99477.38;5112451;27;46105;-84
2022/05/23 09:31:50;;;;;;;;;16.33;16.00;;;;;21.61;64.91;99509.59;5111700;27;45318;-83
2022/05/23 09:34:35;;;;;;;;;17.25;15.75;;;;;21.37;64.78;99495.16;5093377;27;48049;-85
2022/05/23 09:37:04;;;;;;;;;13.75;13.75;;;;;21.27;65.39;99468.72;5112083;27;45706;-84
2022/05/23 09:39:30;;;;;;;;;13.75;13.75;;;;;21.43;64.54;99511.94;5094568;27;46002;-84
2022/05/23 09:47:54;;;;;;;;;16.00;14.75;;;;;21.05;65.68;99505.91;5112412;27;45356;-85
2022/05/23 09:50:26;;;;;;;;;14.75;14.75;;;;;21.04;65.70;99521.06;5092973;27;45494;-84
2022/05/23 09:52:56;;;;;;;;;13.75;12.75;;;;;20.91;65.29;99511.63;5092248;27;45527;-84
2022/05/23 09:55:31;;;;;;;;;16.25;16.00;;;;;20.98;65.88;99513.19;5093131;27;47085;-85
2022/05/23 09:58:00;;;;;;;;;15.50;14.50;;;;;20.93;65.79;99479.50;5111853;27;45419;-83
2022/05/23 10:00:53;;;;;;;;;16.00;15.00;;;;;20.89;65.28;99470.72;5110829;27;45387;-85
2022/05/23 10:03:19;;;;;;;;;14.25;13.25;;;;;21.00;65.99;99502.47;5112116;27;45758;-85
2022/05/23 10:05:50;;;;;;;;;15.25;13.75;;;;;20.91;65.45;99476.00;5112190;27;46277;-85
2022/05/23 10:08:27;;;;;;;;;15.25;14.25;;;;;21.07;65.36;99510.25;5111555;27;45721;-84
2022/05/23 10:11:18;;;;;;;;;16.00;16.00;;;;;20.68;64.59;99436.59;5111811;27;45761;-85
2022/05/23 10:13:51;;;;;;;;;16.00;14.75;;;;;20.98;65.08;99491.81;5112000;27;45561;-84
2022/05/23 10:16:26;;;;;;;;;15.50;15.00;;;;;21.06;65.30;99502.31;5092564;27;47678;-83
2022/05/23 10:19:00;;;;;;;;;14.75;14.75;;;;;20.93;64.75;99482.19;5093356;27;46054;-85
2022/05/23 10:21:32;;;;;;;;;14.75;14.00;;;;;21.08;65.10;99514.72;5111619;27;45731;-84
2022/05/23 10:24:06;;;;;;;;;17.50;17.50;;;;;21.05;65.05;99506.78;5091111;27;45352;-85
2022/05/23 10:26:40;;;;;;;;;14.25;14.25;;;;;20.85;65.98;99488.63;5091561;27;45649;-83
2022/05/23 10:29:12;;;;;;;;;16.00;16.00;;;;;21.00;66.10;99500.69;5090432;27;45476;-84
2022/05/23 10:31:46;;;;;;;;;15.00;14.75;;;;;21.01;65.40;99509.56;5091116;27;45304;-85
2022/05/23 10:34:31;;;;;;;;;17.00;16.00;;;;;20.97;65.61;99521.25;5090648;27;45467;-84
2022/05/23 10:36:57;;;;;;;;;15.75;15.75;;;;;20.85;65.75;99503.78;5089988;27;46013;-85
2022/05/23 10:42:35;;;;;;;;;15.75;15.75;;;;;21.14;66.22;99486.94;5090982;27;45410;-84
2022/05/23 10:45:00;;;;;;;;;18.75;18.00;;;;;21.09;66.15;99496.88;5090633;27;45421;-85
2022/05/23 10:47:38;;;;;;;;;18.00;17.00;;;;;20.98;66.45;99494.47;5090998;27;45984;-86
2022/05/23 10:50:41;;;;;;;;;19.25;19.25;;;;;20.82;66.20;99504.72;5088943;27;46233;-85
2022/05/23 10:53:32;;;;;;;;;22.75;21.75;;;;;20.63;66.39;99529.28;5090639;27;45486;-86
2022/05/23 10:56:16;;;;;;;;;21.00;20.25;;;;;20.41;69.83;99561.84;5051717;27;45626;-84
2022/05/23 10:59:04;;;;;;;;;25.75;25.25;;;;;20.22;70.46;99515.16;5090452;27;46516;-83
2022/05/23 11:02:02;;;;;;;;;30.50;27.00;;;;;19.63;91.34;99472.97;5089824;27;45816;-83
2022/05/23 11:04:56;;;;;;;;;22.25;22.25;;;;;19.39;93.04;99502.81;5093386;27;45478;-83
2022/05/23 11:07:21;;;;;;;;;26.25;26.25;;;;;19.17;93.97;99513.03;5093453;27;45414;-83
2022/05/23 11:10:07;;;;;;;;;31.00;30.33;;;;;19.11;90.04;99515.81;5091023;27;47275;-83
2022/05/23 11:12:51;;;;;;;;;31.00;30.50;;;;;18.71;88.51;99452.69;5073646;27;45465;-83
2022/05/23 11:15:39;;;;;;;;;31.50;31.50;;;;;18.98;88.06;99509.84;5072884;28;45459;-83
2022/05/23 11:18:10;;;;;;;;;28.75;27.25;;;;;18.91;88.59;99506.41;5076149;27;45579;-83
2022/05/23 11:20:40;;;;;;;;;29.25;28.00;;;;;18.84;89.74;99487.94;5091194;27;46013;-83
2022/05/23 11:23:28;;;;;;;;;26.25;25.00;;;;;19.12;90.15;99521.13;5109239;27;45554;-83
2022/05/23 11:26:00;;;;;;;;;31.00;30.25;;;;;19.28;90.71;99519.03;5098134;27;45100;-83
2022/05/23 11:34:26;;;;;;;;;28.50;28.00;;;;;20.10;91.71;99503.88;5084265;27;46286;-81
2022/05/23 11:37:08;;;;;;;;;26.75;26.25;;;;;20.22;91.15;99509.81;5074793;27;45560;-84
2022/05/23 11:39:45;;;;;;;;;30.25;28.00;;;;;19.97;91.15;99448.19;5080849;27;45480;-82
2022/05/23 11:42:28;;;;;;;;;21.75;21.25;;;;;20.46;90.45;99530.56;5093300;27;46350;-84
2022/05/23 11:44:58;;;;;;;;;25.50;24.50;;;;;19.99;89.38;99483.69;5081218;27;45688;-84
2022/05/23 11:47:44;;;;;;;;;25.25;24.75;;;;;20.06;87.70;99528.88;5088289;27;45395;-83
2022/05/23 11:50:23;;;;;;;;;24.25;23.75;;;;;19.87;88.12;99526.66;5091518;27;45646;-83
2022/05/23 11:53:23;;;;;;;;;24.75;24.00;;;;;19.80;87.88;99523.25;5088058;27;47405;-81
2022/05/23 11:55:55;;;;;;;;;25.00;24.50;;;;;19.89;85.78;99528.38;5075044;27;45517;-83
2022/05/23 11:58:36;;;;;;;;;25.75;24.00;;;;;19.87;83.00;99514.22;5072171;27;45421;-84
2022/05/23 12:01:10;;;;;;;;;26.50;25.75;;;;;20.10;79.38;99535.03;5073512;27;45537;-83
2022/05/23 12:03:47;;;;;;;;;26.00;23.25;;;;;20.09;78.42;99534.13;5073937;27;45616;-83
2022/05/23 12:06:22;;;;;;;;;23.50;22.75;;;;;20.09;77.79;99536.78;5072652;27;46753;-83
2022/05/23 12:09:30;;;;;;;;;24.75;24.75;;;;;20.05;77.84;99542.25;5076038;27;45487;-83
2022/05/23 12:12:25;;;;;;;;;21.25;19.25;;;;;19.96;77.31;99543.34;5029179;28;45464;-83
2022/05/23 12:14:53;;;;;;;;;16.00;16.00;;;;;19.88;76.26;99547.97;5007883;28;45821;-83
2022/05/23 12:17:27;;;;;;;;;16.00;15.75;;;;;19.54;75.40;99492.69;5053730;27;45563;-83
2022/05/23 12:19:55;;;;;;;;;15.00;14.75;;;;;19.70;76.15;99511.03;5072633;27;45538;-84
2022/05/23 12:22:37;;;;;;;;;14.25;14.25;;;;;20.12;76.06;99545.66;5099644;27;45209;-83
2022/05/23 12:25:08;;;;;;;;;15.25;14.50;;;;;20.32;74.83;99557.59;5094041;27;45824;-81
2022/05/23 12:27:42;;;;;;;;;15.25;14.50;;;;;20.31;73.39;99554.97;5093525;27;45842;-83
2022/05/23 12:30:16;;;;;;;;;13.25;13.25;;;;;20.25;73.21;99565.78;5092880;27;45663;-82
2022/05/23 12:32:43;;;;;;;;;14.50;14.00;;;;;19.95;73.15;99512.25;5094726;27;45545;-82
2022/05/23 12:35:09;;;;;;;;;17.50;16.25;;;;;20.35;72.77;99564.66;5092325;27;45435;-82